createdAt,value
2023-02-23T00:00:28.469Z,72.67
2023-02-23T00:01:30.528Z,82.83
2023-02-23T00:02:32.288Z,85.33
2023-02-23T00:03:34.365Z,90.83
2023-02-23T00:04:36.528Z,80.33
2023-02-23T00:05:38.376Z,76.83
2023-02-23T00:06:40.226Z,78.00
2023-02-23T00:07:45.440Z,79.17
2023-02-23T00:08:49.992Z,64.67
2023-02-23T00:09:52.921Z,52.67
2023-02-23T00:10:58.639Z,47.33
2023-02-23T00:12:07.497Z,45.33
2023-02-23T00:13:11.114Z,44.17
2023-02-23T00:14:12.865Z,46.83
2023-02-23T00:15:15.646Z,48.33
2023-02-23T00:16:22.761Z,49.50
2023-02-23T00:17:24.613Z,51.00
2023-02-23T00:18:30.194Z,52.17
2023-02-23T00:19:33.601Z,54.17
2023-02-23T00:20:35.609Z,55.50
2023-02-23T00:21:37.810Z,57.67
2023-02-23T00:22:40.438Z,61.00
2023-02-23T00:23:43.536Z,65.83
2023-02-23T00:24:47.740Z,70.50
2023-02-23T00:25:49.605Z,71.00
2023-02-23T00:26:51.767Z,71.00
2023-02-23T00:27:54.901Z,71.50
2023-02-23T00:28:58.349Z,74.00
2023-02-23T00:30:00.183Z,78.17
2023-02-23T00:31:02.946Z,80.17
2023-02-23T00:32:05.039Z,85.00
2023-02-23T00:33:07.468Z,89.00
2023-02-23T00:34:10.669Z,89.17
2023-02-23T00:35:17.524Z,98.83
2023-02-23T00:36:21.652Z,97.67
2023-02-23T00:37:23.506Z,92.67
2023-02-23T00:38:25.649Z,91.00
2023-02-23T00:39:29.370Z,89.83
2023-02-23T00:40:31.291Z,88.17
2023-02-23T00:41:33.101Z,85.67
2023-02-23T00:42:35.867Z,83.83
2023-02-23T00:43:39.732Z,83.00
2023-02-23T00:44:42.312Z,82.50
2023-02-23T00:45:44.205Z,81.17
2023-02-23T00:46:51.799Z,80.67
2023-02-23T00:47:53.900Z,80.00
2023-02-23T00:48:58.510Z,80.00
2023-02-23T00:50:00.393Z,80.17
2023-02-23T00:51:04.830Z,82.67
2023-02-23T00:52:06.600Z,88.33
2023-02-23T00:53:11.240Z,92.67
2023-02-23T00:54:14.422Z,95.83
2023-02-23T00:55:16.310Z,94.67
2023-02-23T00:56:18.154Z,93.83
2023-02-23T00:57:20.132Z,93.00
2023-02-23T00:58:23.346Z,94.50
2023-02-23T00:59:25.225Z,97.00
2023-02-23T01:00:27.054Z,100.67
2023-02-23T01:01:29.344Z,106.33
2023-02-23T01:02:31.411Z,109.33
2023-02-23T01:03:33.545Z,108.67
2023-02-23T01:04:35.438Z,107.17
2023-02-23T01:05:37.267Z,105.50
2023-02-23T01:06:41.401Z,104.50
2023-02-23T01:07:46.497Z,103.83
2023-02-23T01:08:50.769Z,103.00
2023-02-23T01:09:52.562Z,103.00
2023-02-23T01:10:54.763Z,102.83
2023-02-23T01:11:57.276Z,102.17
2023-02-23T01:12:59.153Z,102.83
2023-02-23T01:14:01.927Z,100.17
2023-02-23T01:15:03.873Z,91.83
2023-02-23T01:16:07.701Z,85.83
2023-02-23T01:17:09.599Z,81.17
2023-02-23T01:18:11.934Z,80.00
2023-02-23T01:19:14.134Z,81.50
2023-02-23T01:20:20.185Z,82.83
2023-02-23T01:21:31.240Z,84.17
2023-02-23T01:22:33.014Z,92.17
2023-02-23T01:23:34.799Z,119.50
2023-02-23T01:24:38.621Z,149.00
2023-02-23T01:25:42.945Z,168.00
2023-02-23T01:26:45.638Z,173.33
2023-02-23T01:27:47.650Z,171.50
2023-02-23T01:28:50.555Z,172.67
2023-02-23T01:29:54.834Z,169.00
2023-02-23T01:30:56.951Z,162.50
2023-02-23T01:31:58.746Z,154.33
2023-02-23T01:33:02.567Z,149.83
2023-02-23T01:34:06.030Z,140.00
2023-02-23T01:35:10.299Z,126.33
2023-02-23T01:36:15.796Z,122.50
2023-02-23T01:37:17.608Z,123.50
2023-02-23T01:38:19.456Z,125.50
2023-02-23T01:39:21.425Z,130.17
2023-02-23T01:40:30.486Z,132.50
2023-02-23T01:41:33.154Z,132.67
2023-02-23T01:42:38.597Z,127.17
2023-02-23T01:44:05.139Z,114.83
2023-02-23T01:45:36.397Z,101.67
2023-02-23T01:46:41.187Z,95.33
2023-02-23T01:47:43.164Z,93.17
2023-02-23T01:48:45.249Z,89.50
2023-02-23T01:49:47.784Z,88.00
2023-02-23T01:51:08.404Z,82.83
2023-02-23T01:52:14.335Z,71.50
2023-02-23T01:53:17.341Z,67.33
2023-02-23T01:54:23.680Z,65.50
2023-02-23T01:55:26.960Z,64.67
2023-02-23T01:56:36.621Z,65.50
2023-02-23T01:57:40.346Z,65.50
2023-02-23T01:58:46.733Z,69.50
2023-02-23T01:59:49.950Z,72.83
2023-02-23T02:00:57.579Z,75.17
2023-02-23T02:01:59.333Z,76.83
2023-02-23T02:03:08.702Z,77.00
2023-02-23T02:04:16.529Z,75.83
2023-02-23T02:05:18.986Z,73.50
2023-02-23T02:06:23.394Z,67.83
2023-02-23T02:07:28.409Z,62.67
2023-02-23T02:08:31.745Z,58.50
2023-02-23T02:09:37.905Z,58.00
2023-02-23T02:10:39.833Z,58.00
2023-02-23T02:11:44.591Z,58.00
2023-02-23T02:12:54.108Z,58.00
2023-02-23T02:13:59.258Z,58.00
2023-02-23T02:15:04.979Z,58.00
2023-02-23T02:16:29.047Z,58.83
2023-02-23T02:17:48.623Z,60.00
2023-02-23T02:19:16.831Z,58.67
2023-02-23T02:20:33.387Z,56.00
2023-02-23T02:22:15.297Z,54.00
2023-02-23T02:23:36.973Z,53.50
2023-02-23T02:25:00.778Z,53.00
2023-02-23T02:26:15.868Z,53.33
2023-02-23T02:27:36.561Z,54.50
2023-02-23T02:28:59.741Z,56.83
2023-02-23T02:30:28.175Z,58.00
2023-02-23T02:31:52.396Z,58.83
2023-02-23T02:33:21.601Z,60.00
2023-02-23T02:34:23.313Z,59.83
2023-02-23T02:35:27.893Z,59.00
2023-02-23T02:36:51.306Z,59.00
2023-02-23T02:38:17.839Z,58.67
2023-02-23T02:39:44.867Z,58.00
2023-02-23T02:40:58.962Z,58.00
2023-02-23T02:42:26.966Z,58.00
2023-02-23T02:43:42.889Z,59.17
2023-02-23T02:44:44.675Z,64.17
2023-02-23T02:46:07.845Z,73.33
2023-02-23T02:47:17.682Z,89.17
2023-02-23T02:48:42.383Z,90.33
2023-02-23T02:49:50.458Z,88.33
2023-02-23T02:50:59.270Z,86.83
2023-02-23T02:52:06.852Z,84.50
2023-02-23T02:53:11.145Z,83.17
2023-02-23T02:54:25.183Z,82.00
2023-02-23T02:55:29.585Z,80.83
2023-02-23T02:56:33.504Z,78.83
2023-02-23T02:57:36.352Z,75.67
2023-02-23T02:58:39.100Z,73.50
2023-02-23T03:00:04.264Z,72.33
2023-02-23T03:01:32.348Z,72.00
2023-02-23T03:02:56.239Z,73.67
2023-02-23T03:04:18.618Z,77.83
2023-02-23T03:05:41.714Z,80.67
2023-02-23T03:07:27.985Z,83.50
2023-02-23T03:09:20.825Z,87.00
2023-02-23T03:11:01.522Z,85.67
2023-02-23T03:12:40.760Z,85.00
2023-02-23T03:14:06.909Z,87.50
2023-02-23T03:15:51.105Z,93.83
2023-02-23T03:17:22.249Z,96.00
2023-02-23T03:19:03.472Z,95.00
2023-02-23T03:20:46.232Z,94.33
2023-02-23T03:22:26.348Z,96.83
2023-02-23T03:23:59.021Z,102.00
2023-02-23T03:25:25.312Z,110.83
2023-02-23T03:26:53.882Z,111.33
2023-02-23T03:28:41.027Z,111.00
2023-02-23T03:30:44.078Z,109.50
2023-02-23T03:32:09.842Z,108.00
2023-02-23T03:33:36.563Z,108.83
2023-02-23T03:35:04.812Z,111.50
2023-02-23T03:36:30.936Z,113.00
2023-02-23T03:38:01.007Z,112.17
2023-02-23T03:39:40.757Z,108.17
2023-02-23T03:41:02.241Z,103.50
2023-02-23T03:42:28.259Z,99.67
2023-02-23T03:43:54.823Z,99.17
2023-02-23T03:45:16.912Z,131.83
2023-02-23T03:46:38.802Z,119.83
2023-02-23T03:48:00.922Z,116.00
2023-02-23T03:49:24.994Z,115.67
2023-02-23T03:50:53.812Z,117.50
2023-02-23T03:52:25.030Z,119.50
2023-02-23T03:53:55.081Z,117.17
2023-02-23T03:55:19.451Z,113.00
2023-02-23T03:56:44.838Z,113.00
2023-02-23T03:58:10.325Z,113.00
2023-02-23T03:59:32.951Z,113.00
2023-02-23T04:00:58.437Z,118.00
2023-02-23T04:02:20.152Z,121.33
2023-02-23T04:03:40.645Z,127.33
2023-02-23T04:05:03.683Z,127.17
2023-02-23T04:06:27.294Z,125.33
2023-02-23T04:07:48.100Z,123.50
2023-02-23T04:09:09.631Z,122.00
2023-02-23T04:10:31.200Z,116.50
2023-02-23T04:12:09.692Z,121.17
2023-02-23T04:13:19.283Z,112.33
2023-02-23T04:14:31.045Z,111.83
2023-02-23T04:15:39.351Z,108.33
2023-02-23T04:16:42.028Z,106.00
2023-02-23T04:17:44.693Z,106.50
2023-02-23T04:18:46.740Z,107.83
2023-02-23T04:19:52.682Z,110.00
2023-02-23T04:20:56.110Z,111.00
2023-02-23T04:21:58.024Z,111.00
2023-02-23T04:22:59.838Z,111.83
2023-02-23T04:24:01.660Z,112.17
2023-02-23T04:25:03.800Z,113.33
2023-02-23T04:26:05.758Z,114.00
2023-02-23T04:27:07.630Z,116.67
2023-02-23T04:28:09.800Z,120.17
2023-02-23T04:29:12.620Z,121.83
2023-02-23T04:30:14.489Z,123.50
2023-02-23T04:31:18.765Z,127.00
2023-02-23T04:32:21.140Z,132.67
2023-02-23T04:33:25.008Z,141.17
2023-02-23T04:34:26.793Z,144.50
2023-02-23T04:35:30.006Z,139.50
2023-02-23T04:36:31.833Z,137.17
2023-02-23T04:37:33.739Z,136.33
2023-02-23T04:38:35.837Z,135.33
2023-02-23T04:39:37.684Z,136.33
2023-02-23T04:40:39.662Z,137.00
2023-02-23T04:41:41.476Z,137.00
2023-02-23T04:42:43.362Z,136.00
2023-02-23T04:43:45.193Z,136.00
2023-02-23T04:44:47.264Z,136.00
2023-02-23T04:45:49.407Z,135.83
2023-02-23T04:46:51.244Z,139.50
2023-02-23T04:47:53.761Z,146.17
2023-02-23T04:48:55.948Z,152.50
2023-02-23T04:49:57.879Z,152.33
2023-02-23T04:50:59.893Z,142.17
2023-02-23T04:52:01.974Z,116.67
2023-02-23T04:53:03.797Z,111.50
2023-02-23T04:54:05.693Z,111.83
2023-02-23T04:55:08.949Z,136.67
2023-02-23T04:56:12.044Z,135.17
2023-02-23T04:57:14.289Z,131.50
2023-02-23T04:58:16.270Z,129.50
2023-02-23T04:59:18.507Z,126.83
2023-02-23T05:00:20.543Z,123.83
2023-02-23T05:01:22.608Z,120.83
2023-02-23T05:02:25.106Z,119.50
2023-02-23T05:03:27.264Z,115.50
2023-02-23T05:04:29.279Z,106.33
2023-02-23T05:05:31.563Z,105.00
2023-02-23T05:06:33.475Z,109.67
2023-02-23T05:07:36.666Z,116.67
2023-02-23T05:08:38.787Z,115.83
2023-02-23T05:09:41.335Z,115.50
2023-02-23T05:10:43.716Z,119.00
2023-02-23T05:11:46.293Z,122.50
2023-02-23T05:12:48.054Z,129.17
2023-02-23T05:13:49.892Z,142.17
2023-02-23T05:14:51.631Z,162.83
2023-02-23T05:15:57.804Z,143.83
2023-02-23T05:16:59.689Z,127.67
2023-02-23T05:18:01.501Z,121.67
2023-02-23T05:19:09.364Z,120.83
2023-02-23T05:20:12.588Z,119.50
2023-02-23T05:21:14.499Z,119.00
2023-02-23T05:22:16.297Z,119.17
2023-02-23T05:23:18.720Z,121.00
2023-02-23T05:24:20.917Z,134.50
2023-02-23T05:25:22.766Z,152.83
2023-02-23T05:26:24.759Z,156.67
2023-02-23T05:27:26.540Z,157.83
2023-02-23T05:28:28.797Z,162.17
2023-02-23T05:29:30.711Z,164.00
2023-02-23T05:30:33.208Z,166.00
2023-02-23T05:31:35.248Z,158.83
2023-02-23T05:32:37.186Z,153.83
2023-02-23T05:33:45.831Z,144.83
2023-02-23T05:34:47.688Z,141.00
2023-02-23T05:35:49.539Z,139.83
2023-02-23T05:36:51.836Z,139.00
2023-02-23T05:37:53.767Z,141.17
2023-02-23T05:38:56.102Z,143.00
2023-02-23T05:39:57.872Z,143.00
2023-02-23T05:41:00.014Z,142.33
2023-02-23T05:42:01.907Z,141.50
2023-02-23T05:43:03.717Z,140.17
2023-02-23T05:44:05.596Z,141.00
2023-02-23T05:45:07.867Z,144.00
2023-02-23T05:46:11.847Z,150.50
2023-02-23T05:47:13.679Z,151.17
2023-02-23T05:48:15.742Z,151.00
2023-02-23T05:49:17.658Z,151.17
2023-02-23T05:50:19.505Z,156.83
2023-02-23T05:51:21.670Z,169.00
2023-02-23T05:52:24.644Z,168.50
2023-02-23T05:53:26.499Z,169.17
2023-02-23T05:54:28.476Z,167.33
2023-02-23T05:55:31.771Z,164.50
2023-02-23T05:56:33.979Z,162.33
2023-02-23T05:57:36.304Z,167.67
2023-02-23T05:58:38.128Z,174.00
2023-02-23T05:59:40.300Z,180.33
2023-02-23T06:00:42.417Z,176.00
2023-02-23T06:01:44.488Z,175.83
2023-02-23T06:02:46.443Z,170.67
2023-02-23T06:03:48.921Z,170.17
2023-02-23T06:04:51.128Z,168.67
2023-02-23T06:05:55.311Z,166.67
2023-02-23T06:06:57.272Z,165.00
2023-02-23T06:07:59.223Z,167.50
2023-02-23T06:09:03.495Z,167.50
2023-02-23T06:10:06.548Z,165.83
2023-02-23T06:11:09.960Z,165.17
2023-02-23T06:12:11.901Z,174.17
2023-02-23T06:13:14.522Z,196.33
2023-02-23T06:14:16.468Z,191.83
2023-02-23T06:15:18.729Z,184.83
2023-02-23T06:16:21.129Z,182.67
2023-02-23T06:17:23.560Z,179.33
2023-02-23T06:18:26.614Z,167.17
2023-02-23T06:19:28.414Z,160.67
2023-02-23T06:20:30.284Z,162.67
2023-02-23T06:21:32.071Z,163.50
2023-02-23T06:22:34.343Z,164.67
2023-02-23T06:23:36.250Z,207.00
2023-02-23T06:24:38.016Z,196.17
2023-02-23T06:25:40.888Z,194.00
2023-02-23T06:26:44.422Z,235.83
2023-02-23T06:27:46.546Z,218.17
2023-02-23T06:28:48.636Z,209.00
2023-02-23T06:29:50.434Z,204.67
2023-02-23T06:30:53.805Z,200.00
2023-02-23T06:31:56.555Z,195.17
2023-02-23T06:32:59.332Z,195.83
2023-02-23T06:34:01.161Z,194.33
2023-02-23T06:35:03.665Z,193.83
2023-02-23T06:36:05.727Z,188.00
2023-02-23T06:37:09.245Z,182.50
2023-02-23T06:38:11.284Z,153.17
2023-02-23T06:39:13.312Z,161.67
2023-02-23T06:40:15.205Z,163.50
2023-02-23T06:41:20.677Z,167.00
2023-02-23T06:42:22.621Z,169.17
2023-02-23T06:43:24.450Z,168.33
2023-02-23T06:44:26.353Z,165.33
2023-02-23T06:45:28.327Z,163.83
2023-02-23T06:46:30.236Z,164.33
2023-02-23T06:47:32.113Z,165.83
2023-02-23T06:48:35.520Z,172.50
2023-02-23T06:49:37.550Z,189.33
2023-02-23T06:50:39.294Z,186.00
2023-02-23T06:51:41.120Z,177.00
2023-02-23T06:52:42.978Z,171.83
2023-02-23T06:53:44.941Z,183.33
2023-02-23T06:54:48.284Z,190.17
2023-02-23T06:55:50.035Z,184.50
2023-02-23T06:56:53.272Z,168.67
2023-02-23T06:57:55.090Z,164.50
2023-02-23T06:58:56.907Z,208.50
2023-02-23T06:59:59.244Z,222.00
2023-02-23T07:01:01.284Z,218.17
2023-02-23T07:02:05.774Z,324.83
2023-02-23T07:03:07.964Z,335.50
2023-02-23T07:04:11.282Z,270.50
2023-02-23T07:05:13.414Z,267.50
2023-02-23T07:06:15.329Z,200.33
2023-02-23T07:07:17.169Z,212.67
2023-02-23T07:08:19.301Z,238.17
2023-02-23T07:09:21.072Z,235.33
2023-02-23T07:10:23.050Z,209.67
2023-02-23T07:11:24.822Z,160.00
2023-02-23T07:12:26.687Z,220.00
2023-02-23T07:13:28.468Z,241.17
2023-02-23T07:14:30.340Z,167.67
2023-02-23T07:15:32.153Z,148.50
2023-02-23T07:16:34.140Z,133.50
2023-02-23T07:17:36.604Z,127.83
2023-02-23T07:18:38.455Z,131.33
2023-02-23T07:19:40.853Z,142.33
2023-02-23T07:20:43.038Z,147.33
2023-02-23T07:21:45.386Z,137.17
2023-02-23T07:22:47.230Z,151.00
2023-02-23T07:23:49.933Z,152.00
2023-02-23T07:24:51.975Z,136.17
2023-02-23T07:25:55.212Z,124.17
2023-02-23T07:26:57.083Z,120.33
2023-02-23T07:28:01.717Z,123.17
2023-02-23T07:29:03.732Z,124.17
2023-02-23T07:30:06.431Z,125.50
2023-02-23T07:31:08.418Z,123.17
2023-02-23T07:32:10.653Z,123.67
2023-02-23T07:33:12.857Z,161.67
2023-02-23T07:34:14.653Z,146.17
2023-02-23T07:35:16.738Z,105.00
2023-02-23T07:36:18.543Z,111.33
2023-02-23T07:37:21.536Z,118.83
2023-02-23T07:38:23.531Z,111.33
2023-02-23T07:39:25.704Z,101.83
2023-02-23T07:40:27.537Z,108.00
2023-02-23T07:41:29.454Z,113.67
2023-02-23T07:42:31.272Z,127.83
2023-02-23T07:43:33.300Z,126.00
2023-02-23T07:44:35.241Z,104.00
2023-02-23T07:45:37.465Z,103.17
2023-02-23T07:46:39.297Z,105.83
2023-02-23T07:47:41.178Z,108.50
2023-02-23T07:48:44.999Z,112.50
2023-02-23T07:49:47.082Z,122.17
2023-02-23T07:50:48.981Z,110.33
2023-02-23T07:51:50.829Z,96.83
2023-02-23T07:52:52.850Z,93.33
2023-02-23T07:53:55.234Z,99.67
2023-02-23T07:54:57.796Z,104.17
2023-02-23T07:56:00.861Z,158.67
2023-02-23T07:57:03.075Z,208.00
2023-02-23T07:58:06.177Z,310.83
2023-02-23T07:59:08.085Z,296.83
2023-02-23T08:00:11.701Z,222.00
2023-02-23T08:01:14.462Z,153.00
2023-02-23T08:02:16.700Z,176.17
2023-02-23T08:03:18.820Z,171.50
2023-02-23T08:04:20.767Z,123.33
2023-02-23T08:05:24.367Z,169.67
2023-02-23T08:06:27.347Z,257.00
2023-02-23T08:07:29.175Z,177.83
2023-02-23T08:08:31.170Z,224.17
2023-02-23T08:09:35.072Z,227.00
2023-02-23T08:10:38.282Z,216.83
2023-02-23T08:11:40.514Z,121.17
2023-02-23T08:12:42.415Z,129.83
2023-02-23T08:13:44.282Z,107.33
2023-02-23T08:14:46.261Z,90.33
2023-02-23T08:15:48.106Z,98.50
2023-02-23T08:16:51.639Z,101.33
2023-02-23T08:17:53.636Z,88.50
2023-02-23T08:19:00.095Z,86.50
2023-02-23T08:20:08.868Z,86.67
2023-02-23T08:21:10.998Z,91.67
2023-02-23T08:22:12.903Z,118.00
2023-02-23T08:23:16.986Z,102.00
2023-02-23T08:24:19.000Z,92.67
2023-02-23T08:25:21.278Z,197.83
2023-02-23T08:26:25.055Z,209.17
2023-02-23T08:27:26.876Z,154.50
2023-02-23T08:28:29.766Z,166.33
2023-02-23T08:29:32.041Z,141.67
2023-02-23T08:30:34.524Z,160.50
2023-02-23T08:31:36.868Z,101.00
2023-02-23T08:32:40.494Z,70.00
2023-02-23T08:33:42.481Z,129.83
2023-02-23T08:34:44.719Z,96.50
2023-02-23T08:35:46.535Z,71.67
2023-02-23T08:36:49.045Z,70.33
2023-02-23T08:37:51.494Z,60.50
2023-02-23T08:38:54.343Z,62.17
2023-02-23T08:39:57.113Z,82.50
2023-02-23T08:41:02.649Z,81.17
2023-02-23T08:42:05.139Z,65.50
2023-02-23T08:43:06.949Z,70.33
2023-02-23T08:44:08.911Z,64.17
2023-02-23T08:45:11.384Z,53.17
2023-02-23T08:46:13.482Z,52.17
2023-02-23T08:47:16.769Z,80.83
2023-02-23T08:48:19.358Z,91.00
2023-02-23T08:49:22.479Z,85.83
2023-02-23T08:50:27.022Z,96.17
2023-02-23T08:51:29.148Z,140.17
2023-02-23T08:52:31.493Z,431.33
2023-02-23T08:53:33.880Z,452.50
2023-02-23T08:54:35.721Z,458.83
2023-02-23T08:55:40.324Z,395.17
2023-02-23T08:56:42.459Z,390.00
2023-02-23T08:57:44.521Z,339.33
2023-02-23T08:58:46.490Z,280.83
2023-02-23T08:59:48.522Z,265.33
2023-02-23T09:00:50.551Z,326.33
2023-02-23T09:01:52.829Z,366.00
2023-02-23T09:02:54.806Z,276.33
2023-02-23T09:03:57.548Z,230.83
2023-02-23T09:04:59.615Z,277.17
2023-02-23T09:06:08.373Z,225.00
2023-02-23T09:07:15.232Z,143.17
2023-02-23T09:08:18.247Z,269.17
2023-02-23T09:09:20.023Z,299.67
2023-02-23T09:10:24.938Z,143.33
2023-02-23T09:11:26.911Z,96.17
2023-02-23T09:12:29.194Z,149.67
2023-02-23T09:13:31.234Z,106.50
2023-02-23T09:14:33.017Z,66.00
2023-02-23T09:15:34.865Z,57.50
2023-02-23T09:16:36.995Z,60.00
2023-02-23T09:17:39.179Z,56.33
2023-02-23T09:18:41.821Z,49.83
2023-02-23T09:19:43.835Z,48.50
2023-02-23T09:20:45.807Z,48.33
2023-02-23T09:21:47.689Z,42.83
2023-02-23T09:22:49.484Z,42.50
2023-02-23T09:23:52.919Z,38.50
2023-02-23T09:24:54.765Z,39.17
2023-02-23T09:25:56.622Z,39.50
2023-02-23T09:26:58.525Z,41.33
2023-02-23T09:28:03.833Z,41.67
2023-02-23T09:29:06.975Z,45.50
2023-02-23T09:30:09.764Z,54.00
2023-02-23T09:31:17.144Z,60.50
2023-02-23T09:32:19.363Z,77.83
2023-02-23T09:33:21.380Z,62.83
2023-02-23T09:34:23.263Z,52.17
2023-02-23T09:35:25.502Z,50.33
2023-02-23T09:36:27.849Z,61.67
2023-02-23T09:37:31.881Z,153.50
2023-02-23T09:38:36.552Z,93.17
2023-02-23T09:39:39.734Z,218.17
2023-02-23T09:40:53.881Z,179.00
2023-02-23T09:42:10.676Z,71.00
2023-02-23T09:43:26.641Z,113.67
2023-02-23T09:44:48.643Z,114.00
2023-02-23T09:46:24.353Z,388.33
2023-02-23T09:47:36.367Z,413.17
2023-02-23T09:48:38.495Z,324.00
2023-02-23T09:49:42.906Z,381.00
2023-02-23T09:50:51.797Z,323.83
2023-02-23T09:51:59.771Z,158.33
2023-02-23T09:53:22.004Z,273.17
2023-02-23T09:54:27.225Z,339.50
2023-02-23T09:55:30.338Z,356.67
2023-02-23T09:56:46.763Z,371.50
2023-02-23T09:57:52.004Z,393.33
2023-02-23T09:58:54.443Z,324.83
2023-02-23T09:59:56.710Z,187.17
2023-02-23T10:01:24.660Z,88.83
2023-02-23T10:02:31.032Z,54.83
2023-02-23T10:03:40.432Z,46.67
2023-02-23T10:05:01.080Z,61.00
2023-02-23T10:06:08.178Z,65.50
2023-02-23T10:07:36.611Z,47.83
2023-02-23T10:08:51.519Z,42.83
2023-02-23T10:10:18.063Z,68.67
2023-02-23T10:11:41.925Z,134.67
2023-02-23T10:13:09.607Z,53.33
2023-02-23T10:14:36.726Z,71.17
2023-02-23T10:16:18.653Z,71.50
2023-02-23T10:17:23.387Z,61.83
2023-02-23T10:19:01.984Z,58.67
2023-02-23T10:20:32.621Z,65.83
2023-02-23T10:21:42.915Z,88.50
2023-02-23T10:22:50.104Z,54.67
2023-02-23T10:23:56.005Z,60.00
2023-02-23T10:25:06.739Z,69.33
2023-02-23T10:26:19.211Z,64.17
2023-02-23T10:27:24.965Z,40.17
2023-02-23T10:28:35.056Z,52.00
2023-02-23T10:29:53.209Z,46.17
2023-02-23T10:30:56.129Z,208.17
2023-02-23T10:32:06.587Z,97.00
2023-02-23T10:33:35.970Z,136.67
2023-02-23T10:34:39.759Z,203.33
2023-02-23T10:35:41.852Z,85.17
2023-02-23T10:37:05.406Z,44.50
2023-02-23T10:38:15.376Z,71.17
2023-02-23T10:39:17.700Z,28.00
2023-02-23T10:40:27.761Z,51.00
2023-02-23T10:41:30.244Z,111.00
2023-02-23T10:42:32.381Z,406.83
2023-02-23T10:43:34.305Z,380.00
2023-02-23T10:44:36.076Z,188.00
2023-02-23T10:45:44.605Z,66.83
2023-02-23T10:46:52.819Z,87.83
2023-02-23T10:48:06.715Z,153.67
2023-02-23T10:49:18.915Z,45.33
2023-02-23T10:50:27.507Z,104.17
2023-02-23T10:51:34.832Z,59.67
2023-02-23T10:52:51.622Z,64.83
2023-02-23T10:53:53.620Z,23.17
2023-02-23T10:54:55.603Z,41.33
2023-02-23T10:56:13.846Z,172.00
2023-02-23T10:57:29.149Z,241.17
2023-02-23T10:58:49.964Z,186.17
2023-02-23T11:00:03.261Z,176.33
2023-02-23T11:01:10.714Z,149.33
2023-02-23T11:02:26.398Z,54.83
2023-02-23T11:03:31.124Z,90.67
2023-02-23T11:04:35.228Z,56.17
2023-02-23T11:05:51.347Z,23.83
2023-02-23T11:07:10.057Z,17.67
2023-02-23T11:08:25.412Z,28.33
2023-02-23T11:09:45.664Z,25.00
2023-02-23T11:11:02.572Z,139.83
2023-02-23T11:12:16.864Z,360.33
2023-02-23T11:13:23.323Z,186.83
2023-02-23T11:14:29.032Z,77.83
2023-02-23T11:15:49.075Z,60.17
2023-02-23T11:16:52.012Z,23.50
2023-02-23T11:17:59.573Z,141.33
2023-02-23T11:19:03.573Z,67.83
2023-02-23T11:20:25.036Z,15.00
2023-02-23T11:21:41.093Z,11.00
2023-02-23T11:22:43.420Z,22.83
2023-02-23T11:23:45.360Z,24.83
2023-02-23T11:24:47.490Z,129.33
2023-02-23T11:25:51.912Z,191.17
2023-02-23T11:27:03.853Z,96.00
2023-02-23T11:28:05.808Z,39.00
2023-02-23T11:29:19.682Z,63.83
2023-02-23T11:30:27.901Z,68.83
2023-02-23T11:31:35.091Z,321.83
2023-02-23T11:32:39.008Z,165.50
2023-02-23T11:33:43.704Z,44.33
2023-02-23T11:35:34.349Z,123.33
2023-02-23T11:36:37.378Z,264.83
2023-02-23T11:37:41.778Z,430.17
2023-02-23T11:38:46.822Z,362.17
2023-02-23T11:39:52.690Z,296.67
2023-02-23T11:40:59.902Z,205.67
2023-02-23T11:42:19.338Z,345.83
2023-02-23T11:43:21.781Z,367.33
2023-02-23T11:44:28.183Z,260.33
2023-02-23T11:45:33.696Z,163.00
2023-02-23T11:46:38.280Z,40.67
2023-02-23T11:47:42.262Z,23.17
2023-02-23T11:49:08.551Z,155.67
2023-02-23T11:50:24.025Z,164.17
2023-02-23T11:51:33.040Z,53.83
2023-02-23T11:52:36.666Z,50.67
2023-02-23T11:53:45.479Z,25.50
2023-02-23T11:54:54.911Z,10.00
2023-02-23T11:56:02.693Z,7.50
2023-02-23T11:57:06.325Z,12.83
2023-02-23T11:58:10.889Z,17.33
2023-02-23T11:59:18.822Z,14.67
2023-02-23T12:00:27.878Z,105.67
2023-02-23T12:01:46.510Z,76.50
2023-02-23T12:03:00.754Z,16.83
2023-02-23T12:04:03.162Z,8.67
2023-02-23T12:05:24.538Z,8.83
2023-02-23T12:06:30.927Z,11.67
2023-02-23T12:07:42.077Z,10.17
2023-02-23T12:08:48.033Z,10.33
2023-02-23T12:09:59.718Z,31.33
2023-02-23T12:11:06.345Z,61.67
2023-02-23T12:12:16.788Z,54.50
2023-02-23T12:13:36.822Z,80.67
2023-02-23T12:14:52.130Z,57.00
2023-02-23T12:16:12.230Z,21.83
2023-02-23T12:17:26.959Z,38.83
2023-02-23T12:19:08.532Z,183.33
2023-02-23T12:20:19.190Z,26.33
2023-02-23T12:21:23.741Z,200.67
2023-02-23T12:22:35.475Z,196.33
2023-02-23T12:23:41.328Z,55.00
2023-02-23T12:24:50.692Z,15.17
2023-02-23T12:26:05.560Z,89.83
2023-02-23T12:27:12.977Z,322.67
2023-02-23T12:28:27.232Z,105.83
2023-02-23T12:29:56.855Z,136.83
2023-02-23T12:31:03.130Z,100.33
2023-02-23T12:32:27.259Z,235.50
2023-02-23T12:33:36.813Z,333.67
2023-02-23T12:35:00.472Z,311.50
2023-02-23T12:36:12.643Z,287.50
2023-02-23T12:37:29.353Z,212.33
2023-02-23T12:38:46.420Z,281.00
2023-02-23T12:39:53.535Z,78.83
2023-02-23T12:41:02.341Z,33.67
2023-02-23T12:42:23.404Z,206.00
2023-02-23T12:43:32.343Z,208.00
2023-02-23T12:44:43.053Z,121.33
2023-02-23T12:45:55.713Z,42.50
2023-02-23T12:47:04.838Z,16.83
2023-02-23T12:48:15.318Z,29.50
2023-02-23T12:49:34.121Z,33.33
2023-02-23T12:50:43.351Z,146.17
2023-02-23T12:51:57.208Z,151.33
2023-02-23T12:53:18.144Z,89.00
2023-02-23T12:54:20.068Z,112.00
2023-02-23T12:55:31.649Z,54.17
2023-02-23T12:56:50.955Z,17.33
2023-02-23T12:58:03.723Z,9.67
2023-02-23T12:59:41.917Z,13.67
2023-02-23T13:00:51.102Z,16.33
2023-02-23T13:02:00.933Z,19.17
2023-02-23T13:03:33.517Z,43.00
2023-02-23T13:04:47.270Z,289.17
2023-02-23T13:06:13.429Z,388.83
2023-02-23T13:07:50.383Z,441.50
2023-02-23T13:09:06.022Z,274.00
2023-02-23T13:10:26.026Z,245.33
2023-02-23T13:11:33.910Z,203.33
2023-02-23T13:12:46.310Z,147.83
2023-02-23T13:14:02.492Z,141.00
2023-02-23T13:15:28.568Z,227.33
2023-02-23T13:16:51.719Z,288.00
2023-02-23T13:18:11.200Z,400.67
2023-02-23T13:19:20.911Z,467.67
2023-02-23T13:20:27.748Z,270.00
2023-02-23T13:21:59.097Z,102.17
2023-02-23T13:23:04.027Z,212.83
2023-02-23T13:24:16.486Z,97.00
2023-02-23T13:25:38.579Z,51.17
2023-02-23T13:27:00.353Z,42.67
2023-02-23T13:28:03.499Z,25.50
2023-02-23T13:29:25.239Z,85.67
2023-02-23T13:30:32.435Z,107.50
2023-02-23T13:31:37.216Z,90.50
2023-02-23T13:32:39.385Z,287.83
2023-02-23T13:33:44.290Z,136.17
2023-02-23T13:34:53.730Z,90.50
2023-02-23T13:35:56.433Z,283.17
2023-02-23T13:37:01.257Z,231.50
2023-02-23T13:38:27.864Z,175.00
2023-02-23T13:39:36.095Z,203.83
2023-02-23T13:40:47.237Z,389.33
2023-02-23T13:42:08.105Z,278.67
2023-02-23T13:43:29.814Z,128.83
2023-02-23T13:44:44.193Z,116.50
2023-02-23T13:46:21.671Z,385.17
2023-02-23T13:47:45.646Z,283.00
2023-02-23T13:49:11.775Z,166.83
2023-02-23T13:50:25.317Z,218.67
2023-02-23T13:51:40.018Z,188.33
2023-02-23T13:52:44.372Z,275.67
2023-02-23T13:53:55.909Z,104.50
2023-02-23T13:55:03.689Z,239.33
2023-02-23T13:56:11.482Z,221.67
2023-02-23T13:57:17.670Z,142.67
2023-02-23T13:58:27.500Z,44.33
2023-02-23T13:59:36.685Z,32.83
2023-02-23T14:00:38.574Z,40.67
2023-02-23T14:01:44.891Z,190.50
2023-02-23T14:02:47.409Z,124.67
2023-02-23T14:04:04.929Z,33.67
2023-02-23T14:05:29.098Z,28.17
2023-02-23T14:06:33.648Z,77.83
2023-02-23T14:07:41.694Z,33.50
2023-02-23T14:08:52.366Z,78.17
2023-02-23T14:09:57.138Z,32.00
2023-02-23T14:10:58.967Z,22.17
2023-02-23T14:12:19.389Z,21.00
2023-02-23T14:13:21.171Z,17.50
2023-02-23T14:14:32.322Z,37.33
2023-02-23T14:15:39.745Z,22.00
2023-02-23T14:16:41.981Z,25.83
2023-02-23T14:17:58.466Z,44.83
2023-02-23T14:19:11.415Z,22.67
2023-02-23T14:20:29.662Z,21.67
2023-02-23T14:21:37.477Z,15.00
2023-02-23T14:23:11.825Z,12.50
2023-02-23T14:24:17.780Z,12.83